Time;durP1;ratioP1;P1;durP2;ratioP2;P2;SDS_P1;SDS_P2;PMS_P1;PMS_P2;Temp;Humidity;BMP_temperature;BMP_pressure;BME280_temperature;BME280_humidity;BME280_pressure;Samples;Min_cycle;Max_cycle;Signal;HPM_P1;HPM_P2
2022/05/17 06:29:33;;;;;;;6.43;5.82;;;19.10;99.90;;;;;;5121093;27;20552;-80
2022/05/17 06:31:58;;;;;;;6.60;5.97;;;18.60;99.90;;;;;;5110312;28;20649;-74
2022/05/17 06:34:24;;;;;;;5.40;4.90;;;18.50;99.90;;;;;;5110516;28;20166;-74
2022/05/17 06:36:50;;;;;;;7.20;6.22;;;18.60;99.90;;;;;;5109709;28;20250;-75
2022/05/17 06:39:15;;;;;;;4.78;4.35;;;18.60;99.90;;;;;;5114419;28;20209;-74
2022/05/17 06:41:41;;;;;;;6.18;5.05;;;18.70;99.90;;;;;;5111070;28;20204;-75
2022/05/17 06:44:07;;;;;;;5.95;4.55;;;18.80;99.90;;;;;;5123261;28;20182;-80
2022/05/17 06:46:33;;;;;;;6.28;4.75;;;18.90;99.90;;;;;;5134152;28;20174;-80
2022/05/17 06:48:58;;;;;;;6.65;4.90;;;18.90;99.90;;;;;;5130124;27;20193;-76
2022/05/17 06:51:24;;;;;;;5.38;4.97;;;19.20;99.90;;;;;;5115820;28;20185;-77
2022/05/17 06:53:49;;;;;;;5.28;4.55;;;19.60;99.90;;;;;;5108710;28;20284;-76
2022/05/17 06:56:15;;;;;;;4.72;4.43;;;20.30;99.90;;;;;;5106850;28;20644;-79
2022/05/17 06:58:41;;;;;;;4.40;4.10;;;20.70;99.90;;;;;;5116310;28;20225;-85
2022/05/17 07:01:08;;;;;;;4.75;3.90;;;21.10;99.90;;;;;;5118213;28;20238;-87
2022/05/17 07:03:34;;;;;;;5.30;4.80;;;21.20;99.90;;;;;;5120717;28;20268;-85
2022/05/17 07:05:59;;;;;;;4.63;4.43;;;20.80;99.90;;;;;;5128464;28;20172;-84
2022/05/17 07:08:25;;;;;;;4.72;4.30;;;20.60;99.90;;;;;;5136837;27;20201;-82
2022/05/17 07:13:35;;;;;;;3.95;3.65;;;20.70;99.90;;;;;;5122747;28;20177;-84
2022/05/17 07:16:01;;;;;;;4.20;3.80;;;21.00;99.90;;;;;;5134642;28;20165;-83
2022/05/17 07:18:29;;;;;;;3.67;3.40;;;21.30;99.90;;;;;;5135418;27;20193;-81
2022/05/17 07:20:55;;;;;;;6.53;4.25;;;21.40;99.90;;;;;;5103756;28;20587;-83
2022/05/17 07:23:24;;;;;;;4.05;3.75;;;21.70;99.90;;;;;;5120951;28;20266;-83
2022/05/17 07:25:50;;;;;;;5.05;4.40;;;21.90;99.90;;;;;;5116523;28;20295;-83
2022/05/17 07:28:22;;;;;;;5.20;4.80;;;21.70;99.90;;;;;;5103253;28;20763;-79
2022/05/17 07:30:48;;;;;;;5.72;5.00;;;21.50;99.90;;;;;;5117707;28;20209;-79
2022/05/17 07:33:14;;;;;;;7.43;5.72;;;21.50;99.90;;;;;;5114809;28;20224;-79
2022/05/17 07:35:40;;;;;;;5.75;5.15;;;21.50;99.90;;;;;;5107980;28;20482;-79
2022/05/17 07:38:06;;;;;;;9.98;5.70;;;21.40;99.90;;;;;;5118756;27;20229;-79
2022/05/17 07:40:33;;;;;;;5.53;4.55;;;21.30;99.90;;;;;;5109416;28;20179;-79
2022/05/17 07:42:59;;;;;;;6.50;5.45;;;21.20;99.90;;;;;;5103714;28;20170;-78
2022/05/17 07:45:24;;;;;;;7.45;5.45;;;21.60;99.90;;;;;;5098357;28;20199;-79
2022/05/17 07:47:50;;;;;;;5.57;5.07;;;22.00;99.90;;;;;;5098783;28;20263;-78
2022/05/17 07:50:16;;;;;;;5.53;5.03;;;22.30;99.90;;;;;;5106762;28;20634;-79
2022/05/17 07:52:42;;;;;;;7.43;5.43;;;22.30;99.90;;;;;;5103976;28;20163;-77
2022/05/17 07:55:10;;;;;;;6.10;5.60;;;22.20;99.90;;;;;;5103309;28;20218;-80
2022/05/17 07:57:36;;;;;;;6.82;6.13;;;21.80;99.90;;;;;;5104275;28;20811;-76
2022/05/17 08:00:05;;;;;;;6.57;5.85;;;21.30;99.90;;;;;;5099799;28;20582;-78
2022/05/17 08:02:34;;;;;;;7.03;6.32;;;21.10;99.90;;;;;;5087659;28;20171;-75
2022/05/17 08:04:59;;;;;;;6.82;5.20;;;21.10;99.90;;;;;;5090216;28;20207;-75
2022/05/17 08:07:25;;;;;;;6.50;5.90;;;21.10;99.90;;;;;;5102004;28;20285;-74
2022/05/17 08:09:51;;;;;;;8.00;5.63;;;21.20;99.90;;;;;;5095954;28;20175;-75
2022/05/17 08:12:16;;;;;;;6.35;5.85;;;21.30;99.90;;;;;;5095739;28;20554;-76
2022/05/17 08:14:44;;;;;;;5.90;5.40;;;21.20;99.90;;;;;;5091105;28;20251;-74
2022/05/17 08:17:10;;;;;;;5.25;4.75;;;21.10;99.90;;;;;;5097048;28;20213;-75
2022/05/17 08:19:37;;;;;;;5.88;5.38;;;21.20;99.90;;;;;;5105377;28;20174;-75
2022/05/17 08:22:05;;;;;;;5.55;5.07;;;21.20;99.90;;;;;;5103962;28;20170;-75
2022/05/17 08:27:31;;;;;;;6.35;4.90;;;21.10;99.90;;;;;;5107499;28;20548;-74
2022/05/17 08:27:36;;;;;;;5.50;5.03;;;21.20;99.90;;;;;;5101980;28;20178;-75
2022/05/17 08:30:06;;;;;;;5.97;5.05;;;21.20;99.90;;;;;;5100995;28;20219;-75
2022/05/17 08:35:16;;;;;;;5.30;4.47;;;21.60;99.90;;;;;;5106210;28;20926;-75
2022/05/17 08:37:41;;;;;;;6.35;4.68;;;22.10;99.90;;;;;;5103641;28;20482;-75
2022/05/17 08:40:10;;;;;;;4.68;4.38;;;22.80;99.90;;;;;;5101072;28;20644;-75
2022/05/17 08:42:49;;;;;;;5.38;4.88;;;23.60;99.90;;;;;;5103503;28;20190;-75
2022/05/17 08:45:30;;;;;;;5.97;4.13;;;23.80;99.90;;;;;;5099470;28;20227;-73
2022/05/17 08:47:57;;;;;;;4.90;4.38;;;23.80;99.90;;;;;;5092866;28;20575;-77
2022/05/17 08:50:26;;;;;;;4.38;3.97;;;23.70;99.90;;;;;;5088594;28;20657;-77
2022/05/17 08:52:54;;;;;;;4.78;3.97;;;23.70;99.90;;;;;;5090350;28;20604;-76
2022/05/17 08:55:37;;;;;;;5.20;4.57;;;24.00;99.90;;;;;;5088888;28;20652;-76
2022/05/17 08:58:09;;;;;;;4.75;4.30;;;24.10;99.90;;;;;;5095255;28;20202;-77
2022/05/17 09:00:54;;;;;;;5.90;5.15;;;24.00;99.90;;;;;;5096064;28;20167;-77
2022/05/17 09:03:56;;;;;;;4.35;4.05;;;24.10;99.90;;;;;;5098855;28;20174;-75
2022/05/17 09:06:44;;;;;;;4.50;4.00;;;24.20;99.90;;;;;;5089700;28;20565;-75
2022/05/17 09:09:19;;;;;;;5.15;4.65;;;24.10;99.90;;;;;;5087808;28;20225;-76
2022/05/17 09:12:14;;;;;;;3.80;3.50;;;24.00;99.90;;;;;;5092456;28;20170;-75
2022/05/17 09:14:46;;;;;;;5.57;3.40;;;24.30;99.90;;;;;;5088472;28;20175;-75
2022/05/17 09:17:14;;;;;;;4.70;4.13;;;24.80;99.90;;;;;;5085003;28;20174;-76
2022/05/17 09:19:41;;;;;;;6.10;4.90;;;25.30;99.90;;;;;;5092542;28;20175;-75
2022/05/17 09:22:07;;;;;;;5.60;3.60;;;25.80;99.90;;;;;;5100456;28;20175;-77
2022/05/17 09:24:39;;;;;;;5.13;4.03;;;26.00;99.90;;;;;;5082127;28;20225;-75
2022/05/17 09:27:24;;;;;;;4.88;4.40;;;25.70;99.00;;;;;;5086902;28;20199;-75
2022/05/17 09:29:54;;;;;;;4.55;4.07;;;26.10;99.90;;;;;;5076592;28;20227;-76
2022/05/17 09:32:31;;;;;;;4.40;3.42;;;28.20;95.40;;;;;;5092356;28;20167;-75
2022/05/17 09:35:18;;;;;;;4.43;4.03;;;30.80;87.80;;;;;;5086870;28;20210;-73
2022/05/17 09:37:49;;;;;;;4.55;3.80;;;32.30;71.60;;;;;;5092448;28;20202;-74
2022/05/17 09:40:22;;;;;;;3.88;3.50;;;33.50;65.80;;;;;;5091247;28;20181;-77
2022/05/17 09:42:52;;;;;;;4.68;3.63;;;34.30;61.40;;;;;;5087713;28;20192;-76
2022/05/17 09:45:20;;;;;;;5.13;3.65;;;34.20;56.90;;;;;;5085676;28;20174;-76
2022/05/17 09:48:00;;;;;;;4.22;3.72;;;34.70;58.30;;;;;;5101078;28;20209;-74
2022/05/17 09:53:21;;;;;;;4.05;3.70;;;35.90;51.90;;;;;;5090327;28;20227;-77
2022/05/17 09:55:56;;;;;;;3.63;3.42;;;34.60;53.30;;;;;;5087951;28;20174;-76
2022/05/17 09:58:33;;;;;;;4.40;3.95;;;33.20;54.20;;;;;;5092056;28;20200;-74
2022/05/17 10:01:06;;;;;;;3.78;3.40;;;32.00;57.10;;;;;;5085227;28;20173;-77
2022/05/17 10:03:34;;;;;;;3.50;3.30;;;33.00;54.20;;;;;;5077003;28;20241;-73
2022/05/17 10:06:03;;;;;;;5.07;4.00;;;33.80;54.90;;;;;;5091004;28;20693;-74
2022/05/17 10:08:34;;;;;;;3.97;3.67;;;35.10;51.10;;;;;;5091515;28;20234;-74
2022/05/17 10:11:06;;;;;;;3.38;3.17;;;35.70;51.50;;;;;;5087943;28;20170;-72
2022/05/17 10:13:51;;;;;;;3.10;2.90;;;37.30;49.50;;;;;;5089625;28;20548;-72
2022/05/17 10:16:23;;;;;;;3.33;3.00;;;38.00;46.60;;;;;;5091346;28;20146;-70
2022/05/17 10:18:55;;;;;;;4.25;3.95;;;36.50;47.60;;;;;;5089599;28;20664;-73
2022/05/17 10:21:43;;;;;;;4.55;3.65;;;34.70;49.70;;;;;;5085884;28;20194;-70
2022/05/17 10:24:15;;;;;;;3.80;3.60;;;32.90;53.50;;;;;;5072050;28;20170;-72
2022/05/17 10:26:49;;;;;;;4.25;3.95;;;31.50;55.10;;;;;;5088023;28;20269;-73
2022/05/17 10:29:23;;;;;;;4.88;3.95;;;30.70;56.10;;;;;;5088626;28;20206;-73
2022/05/17 10:31:56;;;;;;;4.50;3.75;;;31.30;56.70;;;;;;5088410;28;20204;-74
2022/05/17 10:34:30;;;;;;;3.95;3.55;;;32.70;55.30;;;;;;5112246;28;20157;-76
2022/05/17 10:37:05;;;;;;;4.35;3.88;;;33.20;52.90;;;;;;5091244;28;20656;-76
2022/05/17 10:39:45;;;;;;;4.18;3.88;;;32.60;53.30;;;;;;5091543;28;20161;-75
2022/05/17 10:42:11;;;;;;;4.07;3.78;;;31.80;55.70;;;;;;5091390;28;20602;-76
2022/05/17 10:44:51;;;;;;;4.10;3.33;;;32.60;56.40;;;;;;5087188;28;20212;-76
2022/05/17 10:47:25;;;;;;;4.80;3.45;;;33.80;51.90;;;;;;5080470;28;20212;-76
2022/05/17 10:49:59;;;;;;;3.58;3.30;;;35.30;50.30;;;;;;5090954;28;20226;-74
2022/05/17 10:52:46;;;;;;;3.00;2.80;;;36.60;49.70;;;;;;5088345;28;20182;-74
2022/05/17 10:55:53;;;;;;;6.45;3.17;;;36.50;46.30;;;;;;5090190;28;20174;-74
2022/05/17 10:58:41;;;;;;;3.28;3.00;;;34.50;49.20;;;;;;5071111;28;20214;-74
2022/05/17 11:01:28;;;;;;;3.47;3.17;;;33.20;50.30;;;;;;5086186;28;20544;-72
2022/05/17 11:04:16;;;;;;;3.45;2.88;;;32.00;52.90;;;;;;5081866;28;20602;-76
2022/05/17 11:06:57;;;;;;;3.38;3.03;;;32.90;52.10;;;;;;5078323;28;20182;-73
2022/05/17 11:09:41;;;;;;;4.63;2.92;;;33.40;51.00;;;;;;5091192;28;20193;-76
2022/05/17 11:12:09;;;;;;;3.72;2.85;;;32.90;50.20;;;;;;5098406;28;20173;-72
2022/05/17 11:14:48;;;;;;;3.58;2.65;;;32.50;52.70;;;;;;5093768;28;20658;-72
2022/05/17 11:17:27;;;;;;;2.67;2.47;;;33.20;51.30;;;;;;5075046;28;20219;-74
2022/05/17 11:20:12;;;;;;;3.30;3.00;;;32.70;51.60;;;;;;5074794;28;20163;-72
2022/05/17 11:22:43;;;;;;;2.92;2.47;;;33.70;49.60;;;;;;5074723;28;20702;-72
2022/05/17 11:25:40;;;;;;;4.18;2.70;;;33.80;49.70;;;;;;5084424;28;20257;-72
2022/05/17 11:28:40;;;;;;;3.10;2.90;;;33.70;49.40;;;;;;5075976;28;20704;-73
2022/05/17 11:31:15;;;;;;;2.83;2.63;;;34.10;50.80;;;;;;5054705;28;20197;-72
2022/05/17 11:33:42;;;;;;;7.68;3.95;;;35.50;48.10;;;;;;5093314;28;20173;-74
2022/05/17 11:36:32;;;;;;;3.50;3.20;;;34.80;47.90;;;;;;5093231;28;20170;-76
2022/05/17 11:39:00;;;;;;;3.97;3.65;;;34.90;49.00;;;;;;5093616;28;20742;-74
2022/05/17 11:41:34;;;;;;;6.18;3.40;;;34.90;49.40;;;;;;5094952;28;20185;-74
2022/05/17 11:44:08;;;;;;;4.43;3.20;;;34.80;47.80;;;;;;5094718;28;20168;-72
2022/05/17 11:46:45;;;;;;;4.15;3.75;;;33.70;50.10;;;;;;5089810;28;20182;-78
2022/05/17 11:49:11;;;;;;;3.67;3.17;;;32.80;51.90;;;;;;5089106;28;20695;-72
2022/05/17 11:51:39;;;;;;;4.15;3.72;;;33.50;51.90;;;;;;5094520;28;20220;-72
2022/05/17 11:54:10;;;;;;;3.58;3.28;;;34.10;50.90;;;;;;5091812;28;20576;-75
2022/05/17 11:56:38;;;;;;;3.88;3.00;;;34.70;49.40;;;;;;5095065;28;20663;-73
2022/05/17 11:59:12;;;;;;;3.13;2.92;;;33.80;48.40;;;;;;5094629;28;20194;-75
2022/05/17 12:01:38;;;;;;;3.10;2.90;;;33.00;51.10;;;;;;5092643;28;20187;-74
2022/05/17 12:04:19;;;;;;;4.50;3.10;;;33.80;50.30;;;;;;5092753;28;20205;-73
2022/05/17 12:06:53;;;;;;;2.92;2.60;;;34.40;47.90;;;;;;5094618;28;20237;-73
2022/05/17 12:09:46;;;;;;;3.17;2.97;;;34.70;48.20;;;;;;5090219;28;20201;-72
2022/05/17 12:12:36;;;;;;;4.38;3.17;;;34.00;49.90;;;;;;5094212;28;20159;-72
2022/05/17 12:15:17;;;;;;;2.88;2.60;;;34.00;48.70;;;;;;5093788;28;20174;-71
2022/05/17 12:17:43;;;;;;;3.63;2.58;;;35.20;46.60;;;;;;5090601;28;20741;-72
2022/05/17 12:20:31;;;;;;;4.43;2.47;;;35.20;46.50;;;;;;5080040;28;20264;-71
2022/05/17 12:23:05;;;;;;;2.70;2.50;;;33.90;48.30;;;;;;5114545;28;20200;-74
2022/05/17 12:25:38;;;;;;;2.50;2.40;;;33.60;49.20;;;;;;5095816;28;20260;-71
2022/05/17 12:28:10;;;;;;;3.30;2.97;;;33.40;49.10;;;;;;5103559;28;20212;-70
2022/05/17 12:30:53;;;;;;;3.35;3.05;;;32.70;50.40;;;;;;5114412;28;20279;-70
2022/05/17 12:33:50;;;;;;;3.78;2.35;;;33.00;51.30;;;;;;5110590;28;20628;-70
2022/05/17 12:36:25;;;;;;;2.95;2.67;;;34.20;48.90;;;;;;5080615;28;20186;-70
2022/05/17 12:44:47;;;;;;;3.42;2.13;;;37.70;42.60;;;;;;5077668;28;20312;-70
2022/05/17 12:47:34;;;;;;;2.50;2.33;;;39.40;41.60;;;;;;5073392;28;20186;-70
2022/05/17 12:50:01;;;;;;;2.30;2.08;;;39.10;41.90;;;;;;5073271;28;20213;-70
2022/05/17 12:52:36;;;;;;;3.67;2.30;;;40.90;40.20;;;;;;5073075;28;20167;-71
2022/05/17 12:55:18;;;;;;;3.90;2.25;;;40.80;39.40;;;;;;5089944;28;20196;-71
2022/05/17 12:57:44;;;;;;;4.32;2.30;;;39.20;40.60;;;;;;5093482;28;20668;-71
2022/05/17 13:00:31;;;;;;;3.38;2.10;;;39.30;40.90;;;;;;5092214;28;20188;-71
2022/05/17 13:03:14;;;;;;;2.20;2.10;;;41.90;39.00;;;;;;5074783;28;20181;-72
2022/05/17 13:05:51;;;;;;;2.38;2.20;;;43.90;36.50;;;;;;5071925;28;20540;-70
2022/05/17 13:08:32;;;;;;;2.30;2.10;;;42.10;36.60;;;;;;5077820;28;20194;-70
2022/05/17 13:11:25;;;;;;;1.77;1.70;;;42.30;37.50;;;;;;5090406;28;20684;-71
2022/05/17 13:13:58;;;;;;;2.00;1.80;;;43.20;37.90;;;;;;5102885;28;20188;-72
2022/05/17 13:16:34;;;;;;;5.35;2.20;;;43.60;36.10;;;;;;5106838;28;20204;-72
2022/05/17 13:19:04;;;;;;;2.58;1.80;;;45.30;35.90;;;;;;5073297;28;20741;-75
2022/05/17 13:21:57;;;;;;;2.50;2.05;;;45.50;34.80;;;;;;5092752;28;20188;-72
2022/05/17 13:24:35;;;;;;;2.53;1.98;;;42.90;35.90;;;;;;5099423;28;20190;-73
2022/05/17 13:27:17;;;;;;;2.60;2.10;;;42.80;36.80;;;;;;5088346;28;20270;-73
2022/05/17 13:29:47;;;;;;;2.65;2.45;;;43.30;36.70;;;;;;5101195;28;20599;-74
2022/05/17 13:32:16;;;;;;;6.80;2.20;;;43.10;36.20;;;;;;5105378;28;20166;-73
2022/05/17 13:34:41;;;;;;;2.33;2.00;;;44.50;35.60;;;;;;5106689;28;20165;-77
2022/05/17 13:37:21;;;;;;;1.90;1.80;;;47.00;34.20;;;;;;5094007;28;20177;-77
2022/05/17 13:39:49;;;;;;;1.95;1.80;;;50.60;31.20;;;;;;5097585;28;20190;-73
2022/05/17 13:42:22;;;;;;;2.70;2.10;;;52.80;30.40;;;;;;5094770;28;20181;-73
2022/05/17 13:44:54;;;;;;;1.65;1.55;;;54.10;28.50;;;;;;5086302;28;20192;-73
2022/05/17 13:47:24;;;;;;;1.67;1.58;;;55.30;27.90;;;;;;5072040;28;20194;-74
2022/05/17 13:49:51;;;;;;;1.90;1.80;;;56.30;27.60;;;;;;5072083;28;20311;-74
2022/05/17 13:52:28;;;;;;;1.50;1.40;;;55.30;27.30;;;;;;5091209;28;20241;-73
2022/05/17 13:54:59;;;;;;;2.58;1.65;;;55.10;27.30;;;;;;5086846;28;20317;-74
2022/05/17 13:57:35;;;;;;;1.60;1.50;;;55.40;26.90;;;;;;5079014;28;20197;-74
2022/05/17 14:00:10;;;;;;;3.13;1.90;;;55.10;26.20;;;;;;5092608;28;20168;-74
2022/05/17 14:02:52;;;;;;;4.07;1.80;;;52.40;27.10;;;;;;5092050;28;20258;-74
2022/05/17 14:05:26;;;;;;;2.25;1.95;;;49.90;28.30;;;;;;5098603;28;20315;-74
2022/05/17 14:13:37;;;;;;;1.75;1.65;;;39.10;36.10;;;;;;5079354;28;20268;-73
2022/05/17 14:16:16;;;;;;;3.70;1.80;;;37.00;38.30;;;;;;5102472;28;20264;-73
2022/05/17 14:18:42;;;;;;;2.17;1.67;;;36.30;39.60;;;;;;5101753;28;20184;-71
2022/05/17 14:21:10;;;;;;;2.22;2.00;;;37.50;39.60;;;;;;5099591;28;20181;-73
2022/05/17 14:23:36;;;;;;;1.60;1.50;;;38.00;38.00;;;;;;5100009;28;20182;-73
2022/05/17 14:26:04;;;;;;;1.65;1.45;;;37.70;39.40;;;;;;5091972;28;20174;-73
2022/05/17 14:28:30;;;;;;;1.65;1.60;;;36.80;38.60;;;;;;5076792;28;20254;-73
2022/05/17 14:30:56;;;;;;;1.80;1.70;;;36.90;39.00;;;;;;5093890;28;20588;-72
2022/05/17 14:33:22;;;;;;;1.60;1.50;;;36.80;38.90;;;;;;5111902;28;20169;-72
2022/05/17 14:35:52;;;;;;;3.13;1.83;;;36.30;39.20;;;;;;5103474;28;20206;-72
2022/05/17 14:38:18;;;;;;;2.08;1.98;;;35.10;40.60;;;;;;5090235;28;20225;-73
2022/05/17 14:40:45;;;;;;;2.05;1.70;;;34.60;42.60;;;;;;5092231;28;20185;-75
2022/05/17 14:43:12;;;;;;;1.90;1.63;;;35.20;41.50;;;;;;5091364;28;20252;-73
2022/05/17 14:45:37;;;;;;;3.05;2.00;;;35.80;41.10;;;;;;5086872;28;20309;-72
2022/05/17 14:48:04;;;;;;;1.95;1.80;;;36.80;39.80;;;;;;5095367;28;20667;-74
2022/05/17 14:50:31;;;;;;;2.45;1.60;;;38.60;38.40;;;;;;5103385;28;20169;-74
2022/05/17 14:52:57;;;;;;;1.50;1.40;;;40.50;36.40;;;;;;5100733;28;20166;-74
2022/05/17 14:55:28;;;;;;;2.55;1.80;;;42.00;36.00;;;;;;5088487;28;20174;-74
2022/05/17 14:57:54;;;;;;;1.85;1.70;;;44.20;33.40;;;;;;5107113;28;20530;-74
2022/05/17 15:00:24;;;;;;;1.75;1.50;;;45.50;31.90;;;;;;5099408;28;20180;-77
2022/05/17 15:02:58;;;;;;;2.28;1.42;;;45.30;31.90;;;;;;5101312;28;20177;-75
2022/05/17 15:05:24;;;;;;;1.80;1.70;;;44.50;33.60;;;;;;5103715;28;20181;-72
2022/05/17 15:07:52;;;;;;;1.95;1.58;;;45.40;32.30;;;;;;5105006;28;20229;-74
2022/05/17 15:10:21;;;;;;;2.03;1.52;;;46.40;31.50;;;;;;5115634;28;20165;-72
2022/05/17 15:12:48;;;;;;;3.25;1.60;;;47.20;30.80;;;;;;5085382;28;20684;-74
2022/05/17 15:15:15;;;;;;;2.60;1.52;;;46.90;31.30;;;;;;5094995;28;20206;-75
2022/05/17 15:17:44;;;;;;;1.50;1.38;;;47.50;29.60;;;;;;5098524;28;20554;-74
2022/05/17 15:20:13;;;;;;;1.55;1.23;;;47.20;30.90;;;;;;5099239;28;20190;-74
2022/05/17 15:22:41;;;;;;;2.50;1.35;;;46.90;30.40;;;;;;5093312;28;20286;-75
2022/05/17 15:25:08;;;;;;;1.60;1.50;;;46.60;30.20;;;;;;5093320;28;20174;-76
2022/05/17 15:27:34;;;;;;;1.80;1.67;;;46.50;30.80;;;;;;5087820;28;20206;-74
2022/05/17 15:29:59;;;;;;;1.77;1.67;;;46.00;30.80;;;;;;5094542;28;20647;-75
2022/05/17 15:32:25;;;;;;;1.40;1.30;;;44.60;31.60;;;;;;5093583;28;20170;-76
2022/05/17 15:34:54;;;;;;;4.00;1.45;;;43.20;32.80;;;;;;5093040;28;20170;-75
2022/05/17 15:37:20;;;;;;;2.63;1.73;;;41.80;34.00;;;;;;5090093;28;20170;-74
2022/05/17 15:39:46;;;;;;;2.00;1.80;;;40.00;34.90;;;;;;5094356;28;20190;-74
2022/05/17 15:42:12;;;;;;;1.52;1.35;;;38.50;37.20;;;;;;5099500;28;20663;-84
2022/05/17 15:44:38;;;;;;;1.92;1.83;;;37.40;38.10;;;;;;5098190;28;20193;-84
2022/05/17 15:55:37;;;;;;;1.95;1.65;;;34.40;41.00;;;;;;5035604;28;20180;-84
2022/05/17 15:58:03;;;;;;;1.80;1.70;;;33.10;43.10;;;;;;5080568;28;20244;-83
2022/05/17 16:00:30;;;;;;;1.83;1.73;;;32.50;44.60;;;;;;5095804;28;20182;-83
2022/05/17 16:02:56;;;;;;;4.53;2.20;;;31.80;44.90;;;;;;5094964;28;20179;-84
2022/05/17 16:05:22;;;;;;;2.58;2.38;;;30.90;46.10;;;;;;5101493;28;20281;-81
2022/05/17 16:08:04;;;;;;;2.65;1.70;;;30.10;48.20;;;;;;5100021;28;20233;-83
2022/05/17 16:10:33;;;;;;;2.50;1.92;;;29.30;49.20;;;;;;5099638;28;20208;-84
2022/05/17 16:13:01;;;;;;;2.13;2.03;;;28.40;50.90;;;;;;5097674;28;20516;-82
2022/05/17 16:15:28;;;;;;;2.50;2.20;;;27.70;52.80;;;;;;5094715;28;20178;-82
2022/05/17 16:18:04;;;;;;;2.40;2.20;;;27.30;53.80;;;;;;5100813;28;20224;-80
2022/05/17 16:20:30;;;;;;;2.00;1.90;;;27.00;54.10;;;;;;5089305;28;20170;-81
2022/05/17 16:22:56;;;;;;;2.58;2.05;;;26.90;54.20;;;;;;5090065;28;20183;-81
2022/05/17 16:25:22;;;;;;;1.92;1.83;;;26.60;54.80;;;;;;5091898;28;20656;-80
2022/05/17 16:27:50;;;;;;;1.92;1.77;;;26.50;55.40;;;;;;5086636;28;20260;-80
2022/05/17 16:30:18;;;;;;;2.95;1.85;;;27.10;55.50;;;;;;5088616;28;20199;-79
2022/05/17 16:32:48;;;;;;;4.97;3.45;;;28.60;53.00;;;;;;5092748;28;20208;-80
2022/05/17 16:35:16;;;;;;;2.25;2.05;;;30.30;51.30;;;;;;5094686;28;20159;-80
2022/05/17 16:37:42;;;;;;;2.05;1.80;;;31.40;49.10;;;;;;5093589;28;20273;-80
2022/05/17 16:40:10;;;;;;;2.85;2.60;;;31.70;48.70;;;;;;5092201;28;20328;-78
2022/05/17 16:42:35;;;;;;;5.22;3.33;;;31.10;48.40;;;;;;5094131;28;20572;-81
2022/05/17 16:45:02;;;;;;;1.70;1.60;;;30.50;49.70;;;;;;5085982;28;20248;-80
2022/05/17 16:47:28;;;;;;;2.25;2.05;;;29.80;50.00;;;;;;5092632;28;20566;-80
2022/05/17 16:49:55;;;;;;;1.73;1.63;;;29.40;50.80;;;;;;5092552;28;20193;-79
2022/05/17 16:52:20;;;;;;;2.72;2.20;;;28.80;51.20;;;;;;5090828;28;20166;-78
2022/05/17 16:54:46;;;;;;;2.70;1.90;;;28.20;52.50;;;;;;5092180;28;20544;-78
2022/05/17 16:57:12;;;;;;;3.17;1.98;;;27.90;53.80;;;;;;5091577;28;20257;-79
2022/05/17 16:59:42;;;;;;;2.40;2.20;;;27.50;54.50;;;;;;5093905;28;20171;-83
2022/05/17 17:02:22;;;;;;;2.28;2.15;;;27.20;55.70;;;;;;5095494;28;20166;-80
2022/05/17 17:04:47;;;;;;;2.13;1.80;;;26.90;55.60;;;;;;5082449;28;20233;-82
2022/05/17 17:07:13;;;;;;;3.42;2.00;;;26.50;55.80;;;;;;5090262;28;20178;-82
2022/05/17 17:09:39;;;;;;;2.00;1.90;;;26.30;57.00;;;;;;5089785;28;20206;-83
2022/05/17 17:12:06;;;;;;;1.90;1.80;;;26.10;56.40;;;;;;5071665;28;20214;-80
2022/05/17 17:14:32;;;;;;;2.03;1.83;;;25.90;57.40;;;;;;5072117;28;20175;-79
2022/05/17 17:16:58;;;;;;;2.40;2.00;;;25.70;57.90;;;;;;5074851;28;20167;-81
2022/05/17 17:19:23;;;;;;;1.58;1.48;;;25.40;57.30;;;;;;5083562;28;20198;-81
2022/05/17 17:21:49;;;;;;;2.83;1.77;;;25.20;58.10;;;;;;5088303;28;20179;-81
2022/05/17 17:24:14;;;;;;;4.80;1.73;;;25.00;57.40;;;;;;5094053;28;20231;-81
2022/05/17 17:26:42;;;;;;;3.58;2.00;;;24.80;58.30;;;;;;5087637;28;20179;-82
2022/05/17 17:29:08;;;;;;;2.33;2.00;;;24.70;58.30;;;;;;5091726;28;20206;-80
2022/05/17 17:31:34;;;;;;;2.10;1.90;;;24.70;59.10;;;;;;5088629;28;20178;-81
2022/05/17 17:39:27;;;;;;;6.25;1.83;;;24.40;60.10;;;;;;5100377;28;20201;-80
2022/05/17 17:41:55;;;;;;;1.83;1.45;;;24.40;61.20;;;;;;5095285;28;20174;-81
2022/05/17 17:44:21;;;;;;;2.05;1.85;;;24.20;60.50;;;;;;5104834;28;20203;-80
2022/05/17 17:46:48;;;;;;;3.15;2.13;;;24.20;61.40;;;;;;5099378;28;20170;-82
2022/05/17 17:49:14;;;;;;;1.85;1.75;;;24.20;61.40;;;;;;5101844;28;20217;-81
2022/05/17 17:51:40;;;;;;;2.30;1.90;;;24.10;62.30;;;;;;5092405;28;21065;-80
2022/05/17 17:54:06;;;;;;;2.33;2.00;;;24.10;62.00;;;;;;5095844;28;20261;-81
2022/05/17 17:56:31;;;;;;;3.40;2.00;;;24.00;62.40;;;;;;5097184;28;20261;-82
2022/05/17 17:58:59;;;;;;;2.20;2.00;;;23.90;63.90;;;;;;5097074;28;20208;-79
2022/05/17 18:01:26;;;;;;;2.78;2.00;;;23.90;64.90;;;;;;5103162;28;20173;-77
2022/05/17 18:03:51;;;;;;;2.95;2.03;;;23.80;64.80;;;;;;5083086;28;20202;-75
2022/05/17 18:06:17;;;;;;;1.88;1.70;;;23.70;65.10;;;;;;5091572;28;20224;-73
2022/05/17 18:08:42;;;;;;;2.72;1.80;;;23.60;65.30;;;;;;5105321;28;20216;-74
2022/05/17 18:11:11;;;;;;;3.58;2.05;;;23.50;66.10;;;;;;5096737;28;20171;-73
2022/05/17 18:13:42;;;;;;;4.45;2.13;;;23.30;66.40;;;;;;5094004;28;20689;-74
2022/05/17 18:16:09;;;;;;;2.42;1.75;;;23.20;67.20;;;;;;5092649;28;20182;-74
2022/05/17 18:18:35;;;;;;;2.05;1.95;;;23.00;67.80;;;;;;5089375;28;21026;-73
2022/05/17 18:21:01;;;;;;;2.92;1.98;;;22.90;69.10;;;;;;5090067;28;20269;-74
2022/05/17 18:23:27;;;;;;;3.30;2.10;;;22.80;70.20;;;;;;5088414;28;20687;-74
2022/05/17 18:25:54;;;;;;;2.35;2.15;;;22.70;70.70;;;;;;5089390;28;20540;-73
2022/05/17 18:28:28;;;;;;;2.00;1.88;;;22.60;71.20;;;;;;5090899;28;20293;-75
2022/05/17 18:30:56;;;;;;;2.15;2.05;;;22.50;72.40;;;;;;5092034;28;20170;-75
2022/05/17 18:33:22;;;;;;;2.25;2.05;;;22.40;72.70;;;;;;5090089;28;20781;-75
2022/05/17 18:35:54;;;;;;;2.30;2.05;;;22.30;72.90;;;;;;5089268;28;20609;-74
2022/05/17 18:38:20;;;;;;;2.55;2.28;;;22.20;74.50;;;;;;5088274;28;20245;-74
2022/05/17 18:40:45;;;;;;;3.10;2.03;;;22.10;75.30;;;;;;5090405;28;20665;-74
2022/05/17 18:43:12;;;;;;;3.65;2.38;;;22.00;75.30;;;;;;5096325;28;20529;-74
2022/05/17 18:45:38;;;;;;;2.65;2.05;;;21.90;76.80;;;;;;5089769;28;20181;-74
2022/05/17 18:48:09;;;;;;;3.53;2.10;;;21.80;76.80;;;;;;5090045;28;20198;-74
2022/05/17 18:50:35;;;;;;;2.65;2.20;;;21.70;78.10;;;;;;5086266;28;20180;-74
2022/05/17 18:53:03;;;;;;;2.17;1.98;;;21.50;78.60;;;;;;5086506;28;20174;-74
2022/05/17 18:55:32;;;;;;;3.47;2.20;;;21.40;79.80;;;;;;5090364;28;20170;-76
2022/05/17 18:57:58;;;;;;;2.88;2.20;;;21.30;80.50;;;;;;5099467;28;20194;-76
2022/05/17 19:00:28;;;;;;;3.72;2.40;;;21.10;82.50;;;;;;5102811;28;20183;-76
2022/05/17 19:02:55;;;;;;;2.92;2.15;;;21.00;83.50;;;;;;5096961;28;20486;-75
2022/05/17 19:05:35;;;;;;;2.13;1.92;;;20.90;83.30;;;;;;5111519;28;20714;-76
2022/05/17 19:13:33;;;;;;;4.68;2.28;;;20.50;86.10;;;;;;5090575;28;20560;-77
2022/05/17 19:16:06;;;;;;;4.88;2.13;;;20.40;87.70;;;;;;5091098;28;20170;-76
2022/05/17 19:18:48;;;;;;;4.00;2.42;;;20.30;88.30;;;;;;5088181;28;20289;-77
2022/05/17 19:21:36;;;;;;;2.40;2.20;;;20.20;90.00;;;;;;5095217;28;20217;-76
2022/05/17 19:24:05;;;;;;;2.65;2.45;;;20.10;90.80;;;;;;5089079;28;20224;-77
2022/05/17 19:26:32;;;;;;;2.85;2.30;;;20.00;91.20;;;;;;5093022;28;20665;-77
2022/05/17 19:28:58;;;;;;;2.65;2.45;;;19.90;91.80;;;;;;5085849;28;20218;-77
2022/05/17 19:31:29;;;;;;;3.13;2.33;;;19.80;92.90;;;;;;5087703;28;20171;-77
2022/05/17 19:33:58;;;;;;;3.30;2.90;;;19.70;93.30;;;;;;5087859;28;20256;-77
2022/05/17 19:36:23;;;;;;;3.05;2.78;;;19.60;94.20;;;;;;5088205;28;20258;-77
2022/05/17 19:41:34;;;;;;;2.80;2.60;;;19.50;95.60;;;;;;5095465;28;20181;-75
2022/05/17 19:43:59;;;;;;;4.03;3.60;;;19.40;96.20;;;;;;5095250;28;20249;-76
2022/05/17 19:46:27;;;;;;;7.13;2.85;;;19.30;96.60;;;;;;5090191;28;20187;-76
2022/05/17 19:48:52;;;;;;;3.08;2.75;;;19.30;97.50;;;;;;5090406;28;20243;-76
2022/05/17 19:51:19;;;;;;;2.67;2.45;;;19.20;98.30;;;;;;5091770;28;20245;-76
2022/05/17 19:53:45;;;;;;;6.13;3.17;;;19.10;99.30;;;;;;5090684;28;20179;-76
2022/05/17 19:56:12;;;;;;;3.03;2.67;;;19.10;99.90;;;;;;5094344;28;20167;-76
2022/05/17 19:58:38;;;;;;;3.75;2.60;;;19.00;99.90;;;;;;5094365;28;20191;-76
2022/05/17 20:01:09;;;;;;;3.53;2.63;;;18.90;99.90;;;;;;5094242;28;20177;-76
2022/05/17 20:03:35;;;;;;;2.80;2.60;;;18.90;99.90;;;;;;5089070;28;20179;-76
2022/05/17 20:06:01;;;;;;;2.60;2.40;;;18.80;99.90;;;;;;5093502;28;20201;-76
2022/05/17 20:08:27;;;;;;;5.68;3.20;;;18.80;99.90;;;;;;5094369;28;20206;-76
2022/05/17 20:11:02;;;;;;;2.97;2.78;;;18.70;99.90;;;;;;5093506;28;20555;-76
2022/05/17 20:13:28;;;;;;;3.63;3.15;;;18.70;99.90;;;;;;5093402;28;20170;-76
2022/05/17 20:15:54;;;;;;;3.10;2.80;;;18.70;99.90;;;;;;5094089;28;20220;-76
2022/05/17 20:18:20;;;;;;;4.43;3.30;;;18.70;99.90;;;;;;5092686;28;20198;-76